Divernon, Illinois
Current Conditions -  °F | °C
As of 7:55 PM on Saturday 22 Nov 2014 (Local Time) from KTAZ Reporting Station
Moderate Rain Moderate Rain  
Wind Chill: 50°   Ceiling: 2500
Heat Index: 50°   Visibility: 7mi
Dew Point: 46°   Wind: 14mph
Humidity: 87%   Direction: 180°S
Pressure: 29.94"   Gusts: 17mph
Location:  39.57°N, 89.66°W
Report Text: KTAZ 230155Z AUTO 18012G15KT 7SM RA BKN025 BKN044 OVC095 10/08 A2994 RMK AO2 P0001
Loading
Personal Weather Stations






























Interactive Weather Map New forecast layout! Learn more

10-Day Weather Forecast

Advertisements
Track Severe Weather on mobile